Time;durP1;ratioP1;P1;durP2;ratioP2;P2;SDS_P1;SDS_P2;PMS_P1;PMS_P2;Temp;Humidity;BMP_temperature;BMP_pressure;BME280_temperature;BME280_humidity;BME280_pressure;Samples;Min_cycle;Max_cycle;Signal;HPM_P1;HPM_P2
2023/11/05 00:00:40;;;;;;;9.48;1.50;;;10.80;99.90;;;;;;4937006;28;91526;-79
2023/11/05 00:03:07;;;;;;;11.38;1.60;;;10.80;99.90;;;;;;4926875;28;89885;-79
2023/11/05 00:05:53;;;;;;;11.38;1.70;;;10.80;99.90;;;;;;4934783;28;88243;-81
2023/11/05 00:08:25;;;;;;;12.80;1.38;;;10.80;99.90;;;;;;4938254;28;94964;-78
2023/11/05 00:10:51;;;;;;;8.70;1.65;;;10.80;99.90;;;;;;4934094;28;90825;-77
2023/11/05 00:13:23;;;;;;;8.43;1.60;;;10.80;99.90;;;;;;4935484;28;88998;-75
2023/11/05 00:16:05;;;;;;;11.82;1.55;;;10.80;99.90;;;;;;4925080;28;88760;-75
2023/11/05 00:18:30;;;;;;;11.98;1.65;;;10.80;99.90;;;;;;4935399;28;90873;-74
2023/11/05 00:21:07;;;;;;;14.45;1.83;;;10.80;99.90;;;;;;4931997;28;88240;-76
2023/11/05 00:23:32;;;;;;;8.88;2.10;;;10.70;99.90;;;;;;4934851;28;90116;-75
2023/11/05 00:26:01;;;;;;;17.00;2.60;;;10.70;99.90;;;;;;4920716;28;87704;-75
2023/11/05 00:28:27;;;;;;;10.27;1.40;;;10.70;99.90;;;;;;4924613;28;88704;-75
2023/11/05 00:30:52;;;;;;;12.13;1.60;;;10.60;99.90;;;;;;4929058;28;91133;-75
2023/11/05 00:33:18;;;;;;;13.52;1.00;;;10.60;99.90;;;;;;4930944;28;91002;-76
2023/11/05 00:35:49;;;;;;;10.05;1.17;;;10.60;99.90;;;;;;4932027;28;88181;-76
2023/11/05 00:38:15;;;;;;;13.00;1.25;;;10.50;99.90;;;;;;4934865;28;90204;-74
2023/11/05 00:40:52;;;;;;;9.32;1.25;;;10.50;99.90;;;;;;4923794;28;92445;-78
2023/11/05 00:43:25;;;;;;;13.73;1.40;;;10.40;99.90;;;;;;4931705;28;91189;-77
2023/11/05 00:45:51;;;;;;;10.90;1.13;;;10.40;99.90;;;;;;4925817;28;90362;-75
2023/11/05 00:48:19;;;;;;;12.77;1.30;;;10.40;99.90;;;;;;4933151;28;89276;-76
2023/11/05 00:50:45;;;;;;;10.95;1.50;;;10.40;99.90;;;;;;4930800;28;91374;-75
2023/11/05 00:53:11;;;;;;;8.98;1.13;;;10.40;99.90;;;;;;4930609;28;89550;-77
2023/11/05 00:55:42;;;;;;;10.10;2.50;;;10.30;99.90;;;;;;4920437;28;87594;-76
2023/11/05 00:58:07;;;;;;;9.07;1.15;;;10.30;99.90;;;;;;4935001;28;89741;-77
2023/11/05 01:00:33;;;;;;;9.82;1.48;;;10.30;99.90;;;;;;4932005;28;90170;-76
2023/11/05 01:02:59;;;;;;;7.65;1.33;;;10.30;99.90;;;;;;4933815;28;91210;-78
2023/11/05 01:05:32;;;;;;;5.72;0.93;;;10.30;99.90;;;;;;4934548;28;88864;-76
2023/11/05 01:07:58;;;;;;;12.02;1.60;;;10.20;99.90;;;;;;4951043;28;90113;-76
2023/11/05 01:10:33;;;;;;;12.75;1.92;;;10.20;99.90;;;;;;4931042;28;91389;-76
2023/11/05 01:13:04;;;;;;;7.05;1.25;;;10.20;99.90;;;;;;4924880;28;91077;-77
2023/11/05 01:15:33;;;;;;;11.07;1.60;;;10.20;99.90;;;;;;4930564;28;87820;-77
2023/11/05 01:18:08;;;;;;;9.38;1.42;;;10.20;99.90;;;;;;4935181;28;90706;-76
2023/11/05 01:20:56;;;;;;;17.00;1.73;;;10.20;99.90;;;;;;4935646;28;91714;-78
2023/11/05 01:23:23;;;;;;;8.50;1.40;;;10.20;99.90;;;;;;4925570;28;93950;-79
2023/11/05 01:25:54;;;;;;;8.13;1.35;;;10.20;99.90;;;;;;4940109;28;87812;-77
2023/11/05 01:28:46;;;;;;;14.10;1.98;;;10.20;99.90;;;;;;4939596;28;90707;-77
2023/11/05 01:31:18;;;;;;;5.97;1.20;;;10.20;99.90;;;;;;4925559;28;90396;-76
2023/11/05 01:33:44;;;;;;;10.52;2.60;;;10.20;99.90;;;;;;4923733;28;91754;-77
2023/11/05 01:36:15;;;;;;;10.52;1.30;;;10.20;99.90;;;;;;4931239;28;87875;-78
2023/11/05 01:38:44;;;;;;;11.73;2.08;;;10.20;99.90;;;;;;4927981;28;88879;-77
2023/11/05 01:41:16;;;;;;;3.55;0.65;;;10.20;99.90;;;;;;4929776;28;91539;-78
2023/11/05 01:44:01;;;;;;;5.78;0.80;;;10.20;99.90;;;;;;4919459;28;91505;-75
2023/11/05 01:46:32;;;;;;;7.72;1.08;;;10.20;99.90;;;;;;4939110;28;88406;-75
2023/11/05 01:48:58;;;;;;;4.80;0.90;;;10.20;99.90;;;;;;4932612;28;89120;-76
2023/11/05 01:51:33;;;;;;;8.20;1.02;;;10.20;99.90;;;;;;4940124;28;91631;-77
2023/11/05 01:54:03;;;;;;;5.88;0.93;;;10.20;99.90;;;;;;4928561;28;90118;-76
2023/11/05 01:56:36;;;;;;;3.17;0.70;;;10.20;99.90;;;;;;4926665;28;88561;-75
2023/11/05 01:59:03;;;;;;;6.80;0.63;;;10.20;99.90;;;;;;4931960;28;94683;-75
2023/11/05 02:01:29;;;;;;;7.82;0.93;;;10.20;99.90;;;;;;4931441;28;88697;-75
2023/11/05 02:04:00;;;;;;;6.70;1.00;;;10.20;99.90;;;;;;4921861;28;90369;-75
2023/11/05 02:06:28;;;;;;;5.18;0.98;;;10.30;99.90;;;;;;4924880;28;88155;-75
2023/11/05 02:08:54;;;;;;;7.47;1.10;;;10.30;99.90;;;;;;4928107;28;91237;-76
2023/11/05 02:11:20;;;;;;;5.32;0.90;;;10.30;99.90;;;;;;4929890;28;91408;-77
2023/11/05 02:13:51;;;;;;;7.05;1.10;;;10.30;99.90;;;;;;4938685;28;91452;-75
2023/11/05 02:16:18;;;;;;;6.70;0.98;;;10.30;99.90;;;;;;4927042;28;87775;-76
2023/11/05 02:18:44;;;;;;;5.88;0.88;;;10.30;99.90;;;;;;4931139;28;88319;-75
2023/11/05 02:21:13;;;;;;;4.35;0.55;;;10.30;99.90;;;;;;4931192;28;89751;-76
2023/11/05 02:23:41;;;;;;;6.95;0.60;;;10.30;99.90;;;;;;4924303;28;89131;-75
2023/11/05 02:26:10;;;;;;;5.93;0.60;;;10.30;99.90;;;;;;4932823;28;87804;-75
2023/11/05 02:28:38;;;;;;;6.90;0.90;;;10.30;99.90;;;;;;4929650;28;87853;-75
2023/11/05 02:31:09;;;;;;;6.10;0.85;;;10.30;99.90;;;;;;4922168;28;91880;-77
2023/11/05 02:33:42;;;;;;;10.48;0.70;;;10.30;99.90;;;;;;4929601;28;88464;-75
2023/11/05 02:36:09;;;;;;;7.25;0.82;;;10.30;99.90;;;;;;4921880;28;87925;-76
2023/11/05 02:38:39;;;;;;;5.13;0.70;;;10.30;99.90;;;;;;4930069;28;91089;-76
2023/11/05 02:41:06;;;;;;;6.25;0.73;;;10.30;99.90;;;;;;4904242;28;95637;-77
2023/11/05 02:43:33;;;;;;;5.57;0.52;;;10.30;99.90;;;;;;4931264;28;91326;-76
2023/11/05 02:46:02;;;;;;;8.50;0.98;;;10.30;99.90;;;;;;4930401;28;89132;-76
2023/11/05 02:48:31;;;;;;;3.90;0.80;;;10.30;99.90;;;;;;4921906;28;90365;-76
2023/11/05 02:51:08;;;;;;;5.35;0.77;;;10.30;99.90;;;;;;4926752;28;90237;-78
2023/11/05 02:53:34;;;;;;;5.55;0.85;;;10.30;99.90;;;;;;4930421;28;91299;-76
2023/11/05 02:56:00;;;;;;;4.78;0.35;;;10.30;99.90;;;;;;4919686;28;87977;-77
2023/11/05 02:58:28;;;;;;;5.18;0.80;;;10.30;99.90;;;;;;4923178;28;90599;-77
2023/11/05 03:00:57;;;;;;;5.85;1.13;;;10.30;99.90;;;;;;4927672;28;90918;-76
2023/11/05 03:03:25;;;;;;;9.38;0.68;;;10.30;99.90;;;;;;4922461;28;90975;-75
2023/11/05 03:05:53;;;;;;;2.15;0.47;;;10.30;99.90;;;;;;4920637;28;87577;-75
2023/11/05 03:08:22;;;;;;;4.43;0.55;;;10.30;99.90;;;;;;4934215;28;90258;-75
2023/11/05 03:10:47;;;;;;;1.73;0.40;;;10.30;99.90;;;;;;4927105;28;92061;-78
2023/11/05 03:13:13;;;;;;;3.47;0.52;;;10.40;99.90;;;;;;4923216;28;92682;-76
2023/11/05 03:15:42;;;;;;;4.00;0.80;;;10.40;99.90;;;;;;4928746;28;88095;-75
2023/11/05 03:18:08;;;;;;;5.55;0.50;;;10.40;99.90;;;;;;4922626;28;88952;-76
2023/11/05 03:20:34;;;;;;;4.68;0.63;;;10.40;99.90;;;;;;4929839;28;91242;-77
2023/11/05 03:22:59;;;;;;;5.65;0.55;;;10.40;99.90;;;;;;4928372;28;91005;-76
2023/11/05 03:25:26;;;;;;;3.22;0.50;;;10.40;99.90;;;;;;4928152;28;88374;-76
2023/11/05 03:27:55;;;;;;;0.80;0.40;;;10.40;99.90;;;;;;4938472;28;91125;-75
2023/11/05 03:30:23;;;;;;;5.47;0.50;;;10.40;99.90;;;;;;4929880;28;91568;-74
2023/11/05 03:32:49;;;;;;;5.03;0.40;;;10.40;99.90;;;;;;4930823;28;88362;-77
2023/11/05 03:35:15;;;;;;;4.60;0.50;;;10.40;99.90;;;;;;4925316;28;88440;-77
2023/11/05 03:37:44;;;;;;;3.70;0.68;;;10.40;99.90;;;;;;4925769;28;90813;-75
2023/11/05 03:40:12;;;;;;;6.82;0.85;;;10.40;99.90;;;;;;4927358;28;90657;-77
2023/11/05 03:42:40;;;;;;;5.30;0.60;;;10.40;99.90;;;;;;4933930;28;90319;-77
2023/11/05 03:45:08;;;;;;;7.57;0.68;;;10.40;99.90;;;;;;4932485;28;88407;-77
2023/11/05 03:47:34;;;;;;;3.28;0.73;;;10.50;99.90;;;;;;4932385;28;90499;-76
2023/11/05 03:50:00;;;;;;;4.93;0.60;;;10.40;99.90;;;;;;4924075;28;91053;-77
2023/11/05 03:52:26;;;;;;;6.75;0.60;;;10.40;99.90;;;;;;4924334;28;90696;-76
2023/11/05 03:54:52;;;;;;;2.42;0.60;;;10.50;99.90;;;;;;4928398;28;87673;-77
2023/11/05 03:57:18;;;;;;;4.32;0.73;;;10.50;99.90;;;;;;4924294;28;90639;-76
2023/11/05 03:59:44;;;;;;;4.82;0.95;;;10.50;99.90;;;;;;4933512;28;92559;-77
2023/11/05 04:02:10;;;;;;;4.68;0.63;;;10.50;99.90;;;;;;4933970;28;91927;-77
2023/11/05 04:04:46;;;;;;;10.63;0.95;;;10.50;99.90;;;;;;4934129;28;87985;-76
2023/11/05 04:07:14;;;;;;;6.95;0.70;;;10.50;99.90;;;;;;4933132;28;90440;-78
2023/11/05 04:09:42;;;;;;;8.25;1.63;;;10.50;99.90;;;;;;4923627;28;91492;-77
2023/11/05 04:12:08;;;;;;;5.97;0.95;;;10.50;99.90;;;;;;4928212;28;90031;-78
2023/11/05 04:14:39;;;;;;;6.90;1.38;;;10.50;99.90;;;;;;4933715;28;87722;-76
2023/11/05 04:17:14;;;;;;;6.30;0.80;;;10.50;99.90;;;;;;4933363;28;93376;-77
2023/11/05 04:19:40;;;;;;;9.77;0.60;;;10.50;99.90;;;;;;4948328;28;88827;-76
2023/11/05 04:22:06;;;;;;;6.30;0.93;;;10.50;99.90;;;;;;4934478;28;91367;-76
2023/11/05 04:24:31;;;;;;;8.82;0.77;;;10.50;99.90;;;;;;4947558;28;88573;-77
2023/11/05 04:27:02;;;;;;;3.78;0.70;;;10.50;99.90;;;;;;4929522;28;91317;-77
2023/11/05 04:29:31;;;;;;;7.05;0.80;;;10.50;99.90;;;;;;4931864;28;90057;-77
2023/11/05 04:32:02;;;;;;;9.73;1.33;;;10.50;99.90;;;;;;4931701;28;90187;-76
2023/11/05 04:34:31;;;;;;;6.07;0.90;;;10.50;99.90;;;;;;4931218;28;88345;-76
2023/11/05 04:36:56;;;;;;;8.23;0.65;;;10.50;99.90;;;;;;4931154;28;90856;-76
2023/11/05 04:39:26;;;;;;;7.22;1.20;;;10.50;99.90;;;;;;4932939;28;90741;-76
2023/11/05 04:42:06;;;;;;;10.07;0.70;;;10.50;99.90;;;;;;4925895;28;90521;-76
2023/11/05 04:44:37;;;;;;;5.72;0.77;;;10.50;99.90;;;;;;4935040;28;87733;-77
2023/11/05 04:47:06;;;;;;;6.75;0.88;;;10.50;99.90;;;;;;4905977;28;94684;-76
2023/11/05 04:49:42;;;;;;;3.30;0.50;;;10.50;99.90;;;;;;4935729;28;92791;-76
2023/11/05 04:52:07;;;;;;;8.85;0.85;;;10.50;99.90;;;;;;4933158;28;92435;-75
2023/11/05 04:54:41;;;;;;;6.82;0.90;;;10.50;99.90;;;;;;4933291;28;88310;-76
2023/11/05 04:57:06;;;;;;;13.27;1.30;;;10.50;99.90;;;;;;4924547;28;91030;-76
2023/11/05 04:59:33;;;;;;;8.32;0.90;;;10.50;99.90;;;;;;4932046;28;91718;-76
2023/11/05 05:02:02;;;;;;;9.38;1.42;;;10.50;99.90;;;;;;4932822;28;90375;-77
2023/11/05 05:04:34;;;;;;;5.60;1.15;;;10.50;99.90;;;;;;4930631;28;87851;-76
2023/11/05 05:07:00;;;;;;;4.57;0.70;;;10.50;99.90;;;;;;4923956;28;90466;-76
2023/11/05 05:09:31;;;;;;;5.75;1.02;;;10.40;99.90;;;;;;4926744;28;90203;-76
2023/11/05 05:11:59;;;;;;;5.68;0.70;;;10.50;99.90;;;;;;4932873;28;90101;-75
2023/11/05 05:14:25;;;;;;;4.93;1.02;;;10.40;99.90;;;;;;4932901;28;89233;-75
2023/11/05 05:17:07;;;;;;;11.32;0.93;;;10.40;99.90;;;;;;4926498;28;90127;-76
2023/11/05 05:19:36;;;;;;;8.52;0.75;;;10.40;99.90;;;;;;4934165;28;91451;-76
2023/11/05 05:22:02;;;;;;;9.13;0.70;;;10.40;99.90;;;;;;4928161;28;91122;-76
2023/11/05 05:24:36;;;;;;;6.68;0.60;;;10.40;99.90;;;;;;4933254;28;87669;-77
2023/11/05 05:27:10;;;;;;;5.57;0.90;;;10.40;99.90;;;;;;4927906;28;88492;-76
2023/11/05 05:29:36;;;;;;;8.75;1.77;;;10.40;99.90;;;;;;4932351;28;90381;-76
2023/11/05 05:32:04;;;;;;;4.40;0.45;;;10.40;99.90;;;;;;4934513;28;95501;-75
2023/11/05 05:34:38;;;;;;;4.38;0.55;;;10.40;99.90;;;;;;4934310;28;87810;-77
2023/11/05 05:37:07;;;;;;;5.90;0.70;;;10.40;99.90;;;;;;4926654;28;90422;-77
2023/11/05 05:39:42;;;;;;;7.03;0.82;;;10.40;99.90;;;;;;4931255;28;92566;-77
2023/11/05 05:42:11;;;;;;;6.35;1.30;;;10.40;99.90;;;;;;4933155;28;91661;-76
2023/11/05 05:44:56;;;;;;;7.35;0.90;;;10.40;99.90;;;;;;4936762;28;87815;-76
2023/11/05 05:47:22;;;;;;;4.07;0.55;;;10.40;99.90;;;;;;4934680;28;95248;-76
2023/11/05 05:49:49;;;;;;;6.82;0.95;;;10.40;99.90;;;;;;4925892;28;91327;-76
2023/11/05 05:52:15;;;;;;;7.38;0.70;;;10.40;99.90;;;;;;4932183;28;90897;-76
2023/11/05 05:54:44;;;;;;;4.88;0.77;;;10.40;99.90;;;;;;4932852;28;88148;-75
2023/11/05 05:57:30;;;;;;;7.97;0.70;;;10.40;99.90;;;;;;4921908;28;90372;-77
2023/11/05 05:59:55;;;;;;;3.55;0.57;;;10.40;99.90;;;;;;4933159;28;91854;-76
2023/11/05 06:02:21;;;;;;;6.35;0.60;;;10.30;99.90;;;;;;4932346;28;89857;-76
2023/11/05 06:05:00;;;;;;;2.88;0.40;;;10.30;99.90;;;;;;4930257;28;89266;-77
2023/11/05 06:07:26;;;;;;;3.92;0.80;;;10.30;99.90;;;;;;4950758;28;90544;-76
2023/11/05 06:09:54;;;;;;;3.13;0.40;;;10.30;99.90;;;;;;4925808;28;91663;-75
2023/11/05 06:12:23;;;;;;;4.75;0.63;;;10.30;99.90;;;;;;4930312;28;89670;-77
2023/11/05 06:14:55;;;;;;;3.65;0.60;;;10.30;99.90;;;;;;4933345;28;88117;-75
2023/11/05 06:17:21;;;;;;;4.47;0.60;;;10.30;99.90;;;;;;4935326;28;90514;-77
2023/11/05 06:19:47;;;;;;;4.20;0.50;;;10.20;99.90;;;;;;4935812;28;91130;-77
2023/11/05 06:22:16;;;;;;;6.38;0.65;;;10.20;99.90;;;;;;4929104;28;91566;-76
2023/11/05 06:24:44;;;;;;;2.15;0.30;;;10.20;99.90;;;;;;4933999;28;88316;-76
2023/11/05 06:27:19;;;;;;;3.30;0.40;;;10.20;99.90;;;;;;4931379;28;90699;-76
2023/11/05 06:29:48;;;;;;;5.05;0.50;;;10.20;99.90;;;;;;4937045;28;92793;-75
2023/11/05 06:32:16;;;;;;;3.85;0.40;;;10.10;99.90;;;;;;4935660;28;92246;-76
2023/11/05 06:34:50;;;;;;;2.25;0.40;;;10.10;99.90;;;;;;4936620;28;87674;-76
2023/11/05 06:37:19;;;;;;;4.70;0.50;;;10.10;99.90;;;;;;4935661;28;90652;-75
2023/11/05 06:39:48;;;;;;;3.80;0.55;;;10.20;99.90;;;;;;4934334;28;89773;-78
2023/11/05 06:42:13;;;;;;;2.60;0.40;;;10.20;99.90;;;;;;4931643;28;91795;-77
2023/11/05 06:44:41;;;;;;;4.38;0.50;;;10.20;99.90;;;;;;4936406;28;88076;-75
2023/11/05 06:47:10;;;;;;;4.20;0.57;;;10.20;99.90;;;;;;4936907;28;88800;-76
2023/11/05 06:49:35;;;;;;;4.10;1.23;;;10.20;99.90;;;;;;4938118;28;89976;-76
2023/11/05 06:52:04;;;;;;;4.63;0.40;;;10.30;99.90;;;;;;4932476;28;93396;-78
2023/11/05 06:54:35;;;;;;;1.45;0.30;;;10.30;99.90;;;;;;4932870;28;88891;-76
2023/11/05 06:57:04;;;;;;;1.75;0.40;;;10.30;99.90;;;;;;4930873;28;90235;-77
2023/11/05 06:59:30;;;;;;;4.13;0.55;;;10.30;99.90;;;;;;4935217;28;91417;-77
2023/11/05 07:01:56;;;;;;;2.03;0.40;;;10.30;99.90;;;;;;4923999;28;90798;-77
2023/11/05 07:04:29;;;;;;;5.45;1.60;;;10.30;99.90;;;;;;4927140;28;87685;-77
2023/11/05 07:06:59;;;;;;;3.20;0.52;;;10.30;99.90;;;;;;4930523;28;90003;-78
2023/11/05 07:09:35;;;;;;;3.90;0.60;;;10.30;99.90;;;;;;4922351;28;91145;-77
2023/11/05 07:12:01;;;;;;;1.48;0.38;;;10.40;99.90;;;;;;4930485;28;94445;-77
2023/11/05 07:14:30;;;;;;;4.10;0.90;;;10.40;99.90;;;;;;4938033;28;87704;-77
2023/11/05 07:16:55;;;;;;;2.97;0.70;;;10.40;99.90;;;;;;4944643;28;89318;-76
2023/11/05 07:19:42;;;;;;;4.93;0.50;;;10.40;99.90;;;;;;4954244;28;93042;-76
2023/11/05 07:22:11;;;;;;;2.97;0.57;;;10.50;99.90;;;;;;4933629;28;88955;-75
2023/11/05 07:24:37;;;;;;;2.95;0.40;;;10.50;99.90;;;;;;4946087;28;87127;-75
2023/11/05 07:27:12;;;;;;;1.95;0.60;;;10.50;99.90;;;;;;4942210;28;90335;-76
2023/11/05 07:29:38;;;;;;;2.38;0.70;;;10.50;99.90;;;;;;4942146;28;92276;-77
2023/11/05 07:32:07;;;;;;;4.10;0.70;;;10.60;99.90;;;;;;4946629;28;89841;-76
2023/11/05 07:34:35;;;;;;;3.80;1.08;;;10.60;99.90;;;;;;4948116;28;87554;-76
2023/11/05 07:37:01;;;;;;;3.75;0.60;;;10.60;99.90;;;;;;4939454;28;88744;-76
2023/11/05 07:39:27;;;;;;;7.50;0.90;;;10.70;99.90;;;;;;4947804;28;91586;-77
2023/11/05 07:41:52;;;;;;;3.47;0.68;;;10.70;99.90;;;;;;4949011;28;91188;-76
2023/11/05 07:44:20;;;;;;;3.45;0.77;;;10.70;99.90;;;;;;4951098;28;88435;-77
2023/11/05 07:46:46;;;;;;;4.05;0.73;;;10.80;99.90;;;;;;4937920;28;89697;-77
2023/11/05 07:49:14;;;;;;;5.45;1.00;;;10.80;99.90;;;;;;4949148;28;88882;-76
2023/11/05 07:51:40;;;;;;;3.25;0.55;;;10.90;99.90;;;;;;4942279;28;88774;-77
2023/11/05 07:54:07;;;;;;;2.70;0.85;;;10.90;99.90;;;;;;4944103;28;87591;-75
2023/11/05 07:56:33;;;;;;;5.57;0.70;;;11.00;99.90;;;;;;4944053;28;88970;-73
2023/11/05 07:58:59;;;;;;;5.90;0.77;;;11.00;99.90;;;;;;4943492;28;91422;-76
2023/11/05 08:01:27;;;;;;;5.22;1.08;;;11.00;99.90;;;;;;4943145;28;91769;-74
2023/11/05 08:04:20;;;;;;;2.78;0.60;;;11.00;99.90;;;;;;4937713;28;89970;-74
2023/11/05 08:07:02;;;;;;;3.58;0.70;;;10.90;99.90;;;;;;4945338;28;89319;-74
2023/11/05 08:09:30;;;;;;;6.67;0.70;;;10.90;99.90;;;;;;4942542;28;89845;-73
2023/11/05 08:11:58;;;;;;;5.15;0.50;;;10.90;99.90;;;;;;4942763;28;92514;-74
2023/11/05 08:14:38;;;;;;;4.47;0.80;;;10.90;99.90;;;;;;4948090;28;87053;-73
2023/11/05 08:17:12;;;;;;;5.05;0.70;;;10.90;99.90;;;;;;4946738;28;92873;-75
2023/11/05 08:19:44;;;;;;;3.38;0.70;;;10.90;99.90;;;;;;4941449;28;90098;-75
2023/11/05 08:22:10;;;;;;;4.28;0.80;;;11.00;99.90;;;;;;4941206;28;89521;-77
2023/11/05 08:24:36;;;;;;;5.45;1.17;;;11.00;99.90;;;;;;4941294;28;87960;-74
2023/11/05 08:27:03;;;;;;;4.57;0.70;;;11.00;99.90;;;;;;4932954;28;89475;-74
2023/11/05 08:29:33;;;;;;;1.83;0.40;;;11.00;99.90;;;;;;4955169;28;90332;-75
2023/11/05 08:31:59;;;;;;;7.10;0.60;;;11.00;99.90;;;;;;4932788;28;88206;-76
2023/11/05 08:34:25;;;;;;;2.10;0.45;;;11.00;99.90;;;;;;4931792;28;88788;-74
2023/11/05 08:36:50;;;;;;;2.50;0.77;;;11.00;99.90;;;;;;4932599;28;89515;-74
2023/11/05 08:39:19;;;;;;;3.28;0.73;;;11.00;99.90;;;;;;4925750;28;90668;-77
2023/11/05 08:41:53;;;;;;;4.68;0.80;;;11.10;99.90;;;;;;4932522;28;88231;-74
2023/11/05 08:44:22;;;;;;;2.92;0.57;;;11.10;99.90;;;;;;4930785;28;87751;-74
2023/11/05 08:47:01;;;;;;;3.70;0.90;;;11.10;99.90;;;;;;4945556;28;90392;-74
2023/11/05 08:49:32;;;;;;;1.17;0.40;;;11.10;99.90;;;;;;4929028;28;88542;-75
2023/11/05 08:51:58;;;;;;;4.82;0.70;;;11.10;99.90;;;;;;4933947;28;88738;-77
2023/11/05 08:54:24;;;;;;;6.00;0.77;;;11.20;99.90;;;;;;4928243;28;87987;-78
2023/11/05 08:57:18;;;;;;;3.90;0.77;;;11.20;99.90;;;;;;4917714;28;88476;-75
2023/11/05 08:59:58;;;;;;;2.17;0.50;;;11.20;99.90;;;;;;4931236;28;89494;-76
2023/11/05 09:02:26;;;;;;;4.45;0.68;;;11.20;99.90;;;;;;4932620;28;91958;-77
2023/11/05 09:04:52;;;;;;;7.28;0.75;;;11.30;99.90;;;;;;4935066;28;88415;-77
2023/11/05 09:07:18;;;;;;;3.90;1.10;;;11.30;99.90;;;;;;4927135;28;90679;-76
2023/11/05 09:09:43;;;;;;;2.75;0.90;;;11.30;99.90;;;;;;4937164;28;87979;-75
2023/11/05 09:12:15;;;;;;;4.20;0.85;;;11.30;99.90;;;;;;4928785;28;89837;-77
2023/11/05 09:14:41;;;;;;;3.42;0.80;;;11.40;99.90;;;;;;4933049;28;87491;-75
2023/11/05 09:17:09;;;;;;;3.13;0.90;;;11.40;99.90;;;;;;4933785;28;89608;-77
2023/11/05 09:19:40;;;;;;;6.68;1.38;;;11.40;99.90;;;;;;4934437;28;87794;-76
2023/11/05 09:22:09;;;;;;;3.15;0.80;;;11.40;99.90;;;;;;4930102;28;91665;-76
2023/11/05 09:24:37;;;;;;;2.88;0.73;;;11.50;99.90;;;;;;4944298;28;89555;-76
2023/11/05 09:27:40;;;;;;;2.83;0.80;;;11.50;99.90;;;;;;4934103;28;88697;-76
2023/11/05 09:30:12;;;;;;;4.68;1.25;;;11.50;99.90;;;;;;4931771;28;88489;-77
2023/11/05 09:32:42;;;;;;;3.90;1.30;;;11.60;99.90;;;;;;4932627;28;88058;-75
2023/11/05 09:35:19;;;;;;;4.82;1.50;;;11.60;99.90;;;;;;4931211;28;88262;-76
2023/11/05 09:38:20;;;;;;;5.82;1.27;;;11.60;99.90;;;;;;4931292;28;88228;-76
2023/11/05 09:40:57;;;;;;;4.28;1.30;;;11.60;99.90;;;;;;4930858;28;88470;-75
2023/11/05 09:43:39;;;;;;;4.35;1.35;;;11.50;99.90;;;;;;4935839;28;86943;-76
2023/11/05 09:46:30;;;;;;;3.47;1.20;;;11.50;99.90;;;;;;4928431;28;88243;-76
2023/11/05 09:49:28;;;;;;;3.40;1.58;;;11.50;99.90;;;;;;4924972;28;93032;-75
2023/11/05 09:51:54;;;;;;;4.82;1.27;;;11.40;99.90;;;;;;4917782;28;89032;-76
2023/11/05 09:54:36;;;;;;;5.72;1.58;;;11.40;99.90;;;;;;4919912;28;92130;-77
2023/11/05 09:57:04;;;;;;;3.63;1.30;;;11.30;99.90;;;;;;4917756;28;87857;-76
2023/11/05 09:59:48;;;;;;;4.82;1.40;;;11.30;99.90;;;;;;4922500;28;93297;-76
2023/11/05 10:02:14;;;;;;;4.75;1.17;;;11.30;99.90;;;;;;4934505;28;95087;-73
2023/11/05 10:04:55;;;;;;;4.05;1.63;;;11.30;99.90;;;;;;4913500;28;91221;-75
2023/11/05 10:07:29;;;;;;;3.50;1.92;;;11.30;99.90;;;;;;4918507;28;88079;-76
2023/11/05 10:10:00;;;;;;;6.63;2.13;;;11.30;99.90;;;;;;4937736;28;90737;-73
2023/11/05 10:12:28;;;;;;;6.72;2.00;;;11.30;99.90;;;;;;4921228;28;91235;-75
2023/11/05 10:14:54;;;;;;;8.63;2.25;;;11.30;99.90;;;;;;4925801;28;90616;-76
2023/11/05 10:17:44;;;;;;;8.07;2.58;;;11.30;99.90;;;;;;4921140;28;88894;-74
2023/11/05 10:23:18;;;;;;;7.70;1.98;;;11.30;99.90;;;;;;4893619;28;93931;-75
2023/11/05 10:25:49;;;;;;;9.98;1.98;;;11.30;99.90;;;;;;4913453;28;91660;-75
2023/11/05 10:28:16;;;;;;;8.20;2.10;;;11.30;99.90;;;;;;4930920;28;87797;-75
2023/11/05 10:30:48;;;;;;;6.43;1.60;;;11.40;99.90;;;;;;4928569;28;87709;-76
2023/11/05 10:33:32;;;;;;;10.23;2.25;;;11.40;99.90;;;;;;4928769;28;91816;-75
2023/11/05 10:36:25;;;;;;;;;;;;;;;;;;;;;
2023/11/05 10:38:52;;;;;;;6.43;1.85;;;11.40;99.90;;;;;;4934462;28;109590;-77
2023/11/05 10:41:21;;;;;;;7.78;1.85;;;11.40;99.90;;;;;;4934960;28;90437;-75
2023/11/05 10:44:21;;;;;;;13.40;2.60;;;11.40;99.90;;;;;;4934535;28;92612;-75
2023/11/05 10:46:55;;;;;;;11.02;2.00;;;11.40;99.90;;;;;;4935676;28;92499;-78
2023/11/05 10:49:26;;;;;;;7.28;1.83;;;11.40;99.90;;;;;;4940122;28;87494;-75
2023/11/05 10:51:54;;;;;;;12.63;2.40;;;11.50;99.90;;;;;;4945016;28;88007;-76
2023/11/05 10:54:31;;;;;;;8.32;2.30;;;11.50;99.90;;;;;;4944277;28;90432;-77
2023/11/05 10:56:57;;;;;;;11.18;2.90;;;11.50;99.90;;;;;;4944611;28;87920;-77
2023/11/05 11:00:11;;;;;;;9.15;2.03;;;11.60;99.90;;;;;;4946084;28;87472;-77
2023/11/05 11:02:43;;;;;;;8.57;2.15;;;11.70;99.90;;;;;;4945282;28;95082;-75
2023/11/05 11:05:22;;;;;;;6.18;2.28;;;11.70;99.90;;;;;;4961105;28;91527;-79
2023/11/05 11:07:51;;;;;;;6.22;2.25;;;11.90;99.90;;;;;;4940192;28;91714;-77
2023/11/05 11:10:33;;;;;;;7.88;2.78;;;11.90;99.90;;;;;;4934239;28;88465;-75
2023/11/05 11:13:18;;;;;;;11.07;2.60;;;12.10;99.90;;;;;;4935142;28;87993;-79
2023/11/05 11:16:00;;;;;;;10.05;2.85;;;12.10;99.90;;;;;;4932919;28;92119;-74
2023/11/05 11:18:37;;;;;;;10.48;2.47;;;12.20;99.90;;;;;;4926474;28;91514;-76
2023/11/05 11:21:04;;;;;;;8.95;3.38;;;12.30;99.90;;;;;;4925941;28;87747;-74
2023/11/05 11:23:50;;;;;;;;;;;;;;;;;;;;;
2023/11/05 11:44:24;;;;;;;11.40;2.92;;;12.40;99.90;;;;;;6253620;22;85769;-75
2023/11/05 11:47:14;;;;;;;11.20;3.15;;;12.40;99.90;;;;;;6085663;22;1471722;-78
2023/11/05 11:49:41;;;;;;;8.48;2.63;;;12.40;99.90;;;;;;6126565;22;89864;-74
2023/11/05 11:52:16;;;;;;;8.68;2.55;;;12.30;99.90;;;;;;6153543;22;86018;-73
2023/11/05 11:54:44;;;;;;;12.75;3.20;;;12.30;99.90;;;;;;6118204;22;86469;-76
2023/11/05 11:57:16;;;;;;;9.65;2.80;;;12.40;99.90;;;;;;6157600;22;87345;-74
2023/11/05 11:59:49;;;;;;;8.52;3.15;;;12.40;99.90;;;;;;6156825;22;86302;-74
2023/11/05 12:02:23;;;;;;;8.60;3.35;;;12.30;99.90;;;;;;6155732;22;86109;-74
2023/11/05 12:05:08;;;;;;;7.78;3.85;;;12.30;99.90;;;;;;6129482;22;86293;-76
2023/11/05 12:07:47;;;;;;;9.75;3.30;;;12.30;99.90;;;;;;6133420;22;89705;-74
2023/11/05 12:11:00;;;;;;;12.50;3.33;;;12.40;99.90;;;;;;6165686;22;86237;-75
2023/11/05 12:13:32;;;;;;;9.38;3.85;;;12.50;99.90;;;;;;6165775;22;85898;-75
2023/11/05 12:16:50;;;;;;;9.15;3.53;;;12.60;99.90;;;;;;6166962;22;85798;-76
2023/11/05 12:19:29;;;;;;;6.90;3.28;;;12.70;99.90;;;;;;6140658;22;90165;-76
2023/11/05 12:22:00;;;;;;;6.35;3.22;;;12.70;99.90;;;;;;6138984;22;88252;-77
2023/11/05 12:25:06;;;;;;;7.13;3.72;;;12.80;99.90;;;;;;6139879;22;85781;-76
2023/11/05 12:30:35;;;;;;;9.15;3.08;;;12.80;99.90;;;;;;6148461;22;87168;-77
2023/11/05 12:33:02;;;;;;;7.10;2.95;;;12.80;99.90;;;;;;6137640;22;86377;-75
2023/11/05 12:35:34;;;;;;;8.43;2.60;;;12.70;99.90;;;;;;6139705;22;86052;-76
2023/11/05 12:38:34;;;;;;;10.13;2.70;;;12.70;99.90;;;;;;6138577;22;85929;-76
2023/11/05 12:41:20;;;;;;;6.38;2.20;;;12.60;99.90;;;;;;6129873;22;90535;-76
2023/11/05 12:43:48;;;;;;;8.05;3.15;;;12.60;99.90;;;;;;6131859;22;90075;-75
2023/11/05 12:46:16;;;;;;;7.40;2.22;;;12.60;99.90;;;;;;6167902;22;85729;-75
2023/11/05 12:48:42;;;;;;;4.57;1.98;;;12.50;99.90;;;;;;6193755;22;85861;-76
2023/11/05 12:51:08;;;;;;;5.72;1.90;;;12.40;99.90;;;;;;6193101;22;86883;-77
2023/11/05 12:53:34;;;;;;;3.83;1.70;;;12.40;99.90;;;;;;6192527;22;88759;-75
2023/11/05 12:56:16;;;;;;;5.97;2.33;;;12.40;99.90;;;;;;6193481;22;85766;-75
2023/11/05 12:58:42;;;;;;;6.53;2.72;;;12.30;99.90;;;;;;6194701;22;85629;-75
2023/11/05 13:01:11;;;;;;;7.00;2.78;;;12.30;99.90;;;;;;6193588;22;87384;-75
2023/11/05 13:03:51;;;;;;;6.30;2.60;;;12.20;99.90;;;;;;6193047;22;86319;-75
2023/11/05 13:06:19;;;;;;;4.85;2.53;;;12.10;99.90;;;;;;6192412;22;86123;-75
2023/11/05 13:08:46;;;;;;;7.78;3.08;;;12.10;99.90;;;;;;6192972;22;86133;-76
2023/11/05 13:11:17;;;;;;;6.85;2.53;;;12.00;99.90;;;;;;6191514;22;86859;-75
2023/11/05 13:13:43;;;;;;;4.28;2.33;;;11.90;99.90;;;;;;6187388;22;89238;-74
2023/11/05 13:16:16;;;;;;;6.15;2.75;;;11.90;99.90;;;;;;6188903;22;86232;-75
2023/11/05 13:18:42;;;;;;;6.75;3.25;;;11.90;99.90;;;;;;6188650;22;85993;-75
2023/11/05 13:21:07;;;;;;;7.00;2.83;;;11.80;99.90;;;;;;6187780;22;90254;-75
2023/11/05 13:23:33;;;;;;;10.13;2.95;;;11.80;99.90;;;;;;6189275;22;86074;-75
2023/11/05 13:25:59;;;;;;;6.22;3.13;;;11.80;99.90;;;;;;6191022;22;86226;-74
2023/11/05 13:28:24;;;;;;;5.72;3.15;;;11.70;99.90;;;;;;6189760;22;86139;-75
2023/11/05 13:30:50;;;;;;;6.70;2.95;;;11.60;99.90;;;;;;6187755;22;86623;-74
2023/11/05 13:33:16;;;;;;;6.78;2.80;;;11.60;99.90;;;;;;6189077;22;90569;-74